createdAt,value
2023-04-01T00:00:24.641Z,98197.23
2023-04-01T00:05:47.468Z,98196.17
2023-04-01T00:10:50.176Z,98191.92
2023-04-01T00:15:53.543Z,98190.11
2023-04-01T00:20:56.100Z,98191.84
2023-04-01T00:26:01.783Z,98183.52
2023-04-01T00:31:07.276Z,98188.83
2023-04-01T00:36:15.722Z,98186.38
2023-04-01T00:41:20.333Z,98188.09
2023-04-01T00:46:22.893Z,98191.36
2023-04-01T00:51:29.975Z,98186.95
2023-04-01T00:56:37.738Z,98185.07
2023-04-01T01:01:40.719Z,98184.48
2023-04-01T01:07:05.479Z,98184.84
2023-04-01T01:12:20.770Z,98181.76
2023-04-01T01:17:51.908Z,98180.77
2023-04-01T01:23:00.644Z,98181.92
2023-04-01T01:28:24.981Z,98182.83
2023-04-01T01:33:43.307Z,98181.50
2023-04-01T01:38:48.418Z,98183.80
2023-04-01T01:43:54.510Z,98186.66
2023-04-01T01:48:58.811Z,98186.45
2023-04-01T01:54:01.290Z,98183.48
2023-04-01T01:59:09.587Z,98182.62
2023-04-01T02:04:15.773Z,98176.84
2023-04-01T02:09:19.721Z,98179.48
2023-04-01T02:14:26.094Z,98184.91
2023-04-01T02:19:34.749Z,98184.53
2023-04-01T02:24:39.739Z,98179.49
2023-04-01T02:29:42.346Z,98175.24
2023-04-01T02:34:45.456Z,98179.50
2023-04-01T02:39:48.000Z,98182.55
2023-04-01T02:44:50.525Z,98184.42
2023-04-01T02:49:58.826Z,98183.74
2023-04-01T02:55:01.623Z,98189.53
2023-04-01T03:00:04.656Z,98191.54
2023-04-01T03:05:08.102Z,98189.66
2023-04-01T03:10:11.236Z,98189.08
2023-04-01T03:15:15.618Z,98193.30
2023-04-01T03:20:18.555Z,98195.81
2023-04-01T03:25:21.167Z,98196.97
2023-04-01T03:30:24.237Z,98201.31
2023-04-01T03:35:27.350Z,98203.16
2023-04-01T03:40:29.866Z,98199.67
2023-04-01T03:45:32.486Z,98201.14
2023-04-01T03:50:35.738Z,98201.83
2023-04-01T03:55:39.194Z,98203.84
2023-04-01T04:00:41.724Z,98205.23
2023-04-01T04:05:48.862Z,98210.58
2023-04-01T04:10:57.738Z,98215.59
2023-04-01T04:16:00.358Z,98219.69
2023-04-01T04:21:04.133Z,98227.17
2023-04-01T04:26:08.751Z,98228.63
2023-04-01T04:31:11.488Z,98229.67
2023-04-01T04:36:14.702Z,98229.30
2023-04-01T04:41:20.340Z,98230.81
2023-04-01T04:46:23.747Z,98229.63
2023-04-01T04:51:26.842Z,98232.18
2023-04-01T04:56:29.443Z,98233.81
2023-04-01T05:01:32.044Z,98237.96
2023-04-01T05:06:34.666Z,98243.98
2023-04-01T05:11:37.463Z,98248.70
2023-04-01T05:16:40.020Z,98253.99
2023-04-01T05:21:42.577Z,98257.58
2023-04-01T05:26:45.337Z,98264.10
2023-04-01T05:31:47.830Z,98268.40
2023-04-01T05:36:50.284Z,98270.38
2023-04-01T05:41:52.885Z,98271.53
2023-04-01T05:46:55.625Z,98272.17
2023-04-01T05:51:58.392Z,98283.67
2023-04-01T05:57:03.049Z,98282.96
2023-04-01T06:02:05.666Z,98291.27
2023-04-01T06:07:16.901Z,98288.77
2023-04-01T06:12:57.519Z,98295.64
2023-04-01T06:18:31.990Z,98298.93
2023-04-01T06:24:07.546Z,98301.40
2023-04-01T06:29:29.136Z,98302.05
2023-04-01T06:34:50.793Z,98303.66
2023-04-01T06:40:09.281Z,98312.65
2023-04-01T06:45:20.009Z,98313.45
2023-04-01T06:50:42.648Z,98318.86
2023-04-01T06:55:53.630Z,98325.74
2023-04-01T07:01:01.235Z,98326.46
2023-04-01T07:06:06.514Z,98333.91
2023-04-01T07:11:31.534Z,98343.43
2023-04-01T07:16:40.650Z,98350.08
2023-04-01T07:21:57.840Z,98356.11
2023-04-01T07:27:00.480Z,98358.23
2023-04-01T07:32:22.349Z,98362.88
2023-04-01T07:37:46.271Z,98367.54
2023-04-01T07:43:21.115Z,98366.91
2023-04-01T07:48:55.758Z,98371.05
2023-04-01T07:54:14.022Z,98376.92
2023-04-01T07:59:40.970Z,98380.80
2023-04-01T08:05:15.318Z,98384.55
2023-04-01T08:10:24.619Z,98385.63
2023-04-01T08:15:43.450Z,98390.58
2023-04-01T08:20:51.925Z,98394.36
2023-04-01T08:26:14.796Z,98395.72
2023-04-01T08:31:36.981Z,98398.27
2023-04-01T08:36:45.290Z,98401.64
2023-04-01T08:41:59.648Z,98406.21
2023-04-01T08:47:34.034Z,98412.41
2023-04-01T08:53:09.679Z,98414.52
2023-04-01T08:58:20.915Z,98415.75
2023-04-01T09:03:42.330Z,98418.48
2023-04-01T09:09:03.777Z,98428.01
2023-04-01T09:14:22.320Z,98429.48
2023-04-01T09:19:30.786Z,98436.02
2023-04-01T09:24:47.715Z,98442.46
2023-04-01T09:30:09.670Z,98450.51
2023-04-01T09:35:25.456Z,98461.88
2023-04-01T09:40:38.423Z,98470.79
2023-04-01T09:45:48.534Z,98471.54
2023-04-01T09:51:17.764Z,98473.72
2023-04-01T09:56:28.308Z,98481.02
2023-04-01T10:01:46.882Z,98484.58
2023-04-01T10:07:32.838Z,98487.72
2023-04-01T10:12:41.346Z,98495.02
2023-04-01T10:18:06.316Z,98500.68
2023-04-01T10:23:40.888Z,98507.45
2023-04-01T10:29:19.690Z,98513.12
2023-04-01T10:34:41.062Z,98516.83
2023-04-01T10:40:15.496Z,98521.25
2023-04-01T10:45:37.476Z,98523.73
2023-04-01T10:50:56.168Z,98527.92
2023-04-01T10:56:14.557Z,98530.44
2023-04-01T11:01:20.804Z,98532.34
2023-04-01T11:06:57.292Z,98539.22
2023-04-01T11:12:16.077Z,98546.73
2023-04-01T11:17:18.571Z,98552.92
2023-04-01T11:22:27.915Z,98553.79
2023-04-01T11:28:04.299Z,98556.16
2023-04-01T11:33:21.872Z,98560.68
2023-04-01T11:38:43.100Z,98560.04
2023-04-01T11:44:18.366Z,98561.71
2023-04-01T11:49:48.767Z,98564.50
2023-04-01T11:55:18.963Z,98572.34
2023-04-01T12:00:33.972Z,98581.52
2023-04-01T12:05:59.622Z,98591.66
2023-04-01T12:11:16.785Z,98597.41
2023-04-01T12:16:25.694Z,98602.27
2023-04-01T12:21:49.850Z,98604.22
2023-04-01T12:27:08.350Z,98610.39
2023-04-01T12:32:29.595Z,98615.20
2023-04-01T12:38:04.163Z,98621.70
2023-04-01T12:43:36.858Z,98629.57
2023-04-01T12:48:55.638Z,98632.55
2023-04-01T12:54:20.510Z,98636.59
2023-04-01T12:59:55.607Z,98639.97
2023-04-01T13:05:30.456Z,98647.17
2023-04-01T13:10:43.080Z,98657.53
2023-04-01T13:16:00.933Z,98664.60
2023-04-01T13:21:10.608Z,98672.70
2023-04-01T13:26:51.295Z,98676.95
2023-04-01T13:32:15.531Z,98683.30
2023-04-01T13:37:43.054Z,98682.56
2023-04-01T13:42:54.865Z,98687.91
2023-04-01T13:48:16.593Z,98694.52
2023-04-01T13:53:35.511Z,98703.50
2023-04-01T13:58:49.968Z,98709.63
2023-04-01T14:03:57.266Z,98714.38
2023-04-01T14:09:16.085Z,98719.79
2023-04-01T14:14:37.989Z,98723.96
2023-04-01T14:20:14.719Z,98730.44
2023-04-01T14:25:37.053Z,98734.90
2023-04-01T14:30:59.235Z,98737.94
2023-04-01T14:36:39.696Z,98743.58
2023-04-01T14:42:00.430Z,98751.41
2023-04-01T14:47:44.196Z,98754.88
2023-04-01T14:53:07.502Z,98758.36
2023-04-01T14:58:13.766Z,98770.08
2023-04-01T15:03:28.099Z,98774.59
2023-04-01T15:08:39.210Z,98780.80
2023-04-01T15:14:14.063Z,98784.88
2023-04-01T15:19:43.821Z,98791.20
2023-04-01T15:25:13.019Z,98805.40
2023-04-01T15:30:38.338Z,98812.45
2023-04-01T15:36:16.762Z,98816.44
2023-04-01T15:41:37.026Z,98829.98
2023-04-01T15:46:47.749Z,98834.48
2023-04-01T15:52:04.917Z,98840.78
2023-04-01T15:57:31.242Z,98844.51
2023-04-01T16:03:10.336Z,98849.60
2023-04-01T16:08:36.343Z,98862.52
2023-04-01T16:14:11.000Z,98874.95
2023-04-01T16:19:26.362Z,98887.39
2023-04-01T16:24:47.898Z,98899.16
2023-04-01T16:29:56.341Z,98901.93
2023-04-01T16:35:15.671Z,98909.56
2023-04-01T16:40:27.067Z,98917.04
2023-04-01T16:45:29.602Z,98926.78
2023-04-01T16:50:40.857Z,98930.27
2023-04-01T16:56:06.179Z,98938.98
2023-04-01T17:01:17.177Z,98947.09
2023-04-01T17:06:44.269Z,98958.88
2023-04-01T17:12:06.066Z,98969.48
2023-04-01T17:17:41.762Z,98976.48
2023-04-01T17:23:02.745Z,98988.66
2023-04-01T17:28:11.630Z,98994.74
2023-04-01T17:33:43.191Z,99005.21
2023-04-01T17:39:07.833Z,99010.30
2023-04-01T17:44:26.295Z,99021.63
2023-04-01T17:49:35.026Z,99032.17
2023-04-01T17:54:59.383Z,99038.33
2023-04-01T18:00:17.907Z,99046.13
2023-04-01T18:05:31.700Z,99053.47
2023-04-01T18:10:52.613Z,99061.39
2023-04-01T18:16:28.062Z,99069.58
2023-04-01T18:21:51.433Z,99073.65
2023-04-01T18:27:10.017Z,99081.34
2023-04-01T18:32:25.390Z,99087.88
2023-04-01T18:37:42.538Z,99094.23
2023-04-01T18:42:56.692Z,99101.91
2023-04-01T18:48:32.891Z,99108.35
2023-04-01T18:53:35.569Z,99113.30
2023-04-01T18:58:59.979Z,99119.75
2023-04-01T19:04:39.683Z,99126.31
2023-04-01T19:09:48.634Z,99135.94
2023-04-01T19:15:00.759Z,99148.38
2023-04-01T19:20:03.412Z,99150.88
2023-04-01T19:25:34.309Z,99157.41
2023-04-01T19:31:00.700Z,99161.65
2023-04-01T19:36:10.962Z,99165.05
2023-04-01T19:41:36.318Z,99171.06
2023-04-01T19:47:10.308Z,99179.56
2023-04-01T19:52:20.822Z,99188.80
2023-04-01T19:57:33.707Z,99197.23
2023-04-01T20:03:01.082Z,99202.51
2023-04-01T20:08:19.645Z,99206.45
2023-04-01T20:13:38.141Z,99215.17
2023-04-01T20:18:46.587Z,99218.33
2023-04-01T20:23:59.165Z,99218.04
2023-04-01T20:29:28.657Z,99224.34
2023-04-01T20:34:31.865Z,99228.92
2023-04-01T20:39:46.887Z,99234.69
2023-04-01T20:45:08.466Z,99242.50
2023-04-01T20:50:27.267Z,99251.60
2023-04-01T20:55:52.096Z,99254.34
2023-04-01T21:01:03.964Z,99255.98
2023-04-01T21:06:33.954Z,99261.30
2023-04-01T21:12:09.650Z,99269.29
2023-04-01T21:17:46.477Z,99279.04
2023-04-01T21:22:56.230Z,99282.88
2023-04-01T21:28:14.680Z,99287.52
2023-04-01T21:33:36.241Z,99291.58
2023-04-01T21:39:01.265Z,99292.83
2023-04-01T21:44:36.025Z,99295.45
2023-04-01T21:49:48.544Z,99294.64
2023-04-01T21:55:23.448Z,99295.45
2023-04-01T22:01:02.688Z,99302.38
2023-04-01T22:06:46.227Z,99308.80
2023-04-01T22:12:15.777Z,99318.23
2023-04-01T22:17:55.771Z,99321.44
2023-04-01T22:23:18.488Z,99328.16
2023-04-01T22:28:52.218Z,99329.58
2023-04-01T22:34:26.129Z,99333.62
2023-04-01T22:39:49.884Z,99344.02
2023-04-01T22:45:09.452Z,99350.63
2023-04-01T22:50:28.879Z,99359.31
2023-04-01T22:55:39.112Z,99369.43
2023-04-01T23:01:01.018Z,99370.33
2023-04-01T23:06:05.772Z,99374.69
2023-04-01T23:11:16.265Z,99378.13
2023-04-01T23:16:24.497Z,99382.70
2023-04-01T23:21:30.182Z,99388.11
2023-04-01T23:26:48.800Z,99394.12
2023-04-01T23:32:02.628Z,99403.40
2023-04-01T23:37:12.476Z,99410.55
2023-04-01T23:42:32.631Z,99417.64
2023-04-01T23:47:39.144Z,99418.21
2023-04-01T23:52:47.304Z,99426.71
2023-04-01T23:58:05.911Z,99432.21
